createdAt,value
2023-03-13T00:01:00.859Z,2.92
2023-03-13T00:03:28.356Z,2.95
2023-03-13T00:05:58.869Z,3.28
2023-03-13T00:08:29.415Z,3.10
2023-03-13T00:10:56.712Z,3.00
2023-03-13T00:13:23.663Z,2.47
2023-03-13T00:15:50.457Z,2.80
2023-03-13T00:18:17.370Z,2.83
2023-03-13T00:20:44.200Z,2.92
2023-03-13T00:23:10.979Z,2.85
2023-03-13T00:25:37.772Z,2.95
2023-03-13T00:28:04.833Z,2.38
2023-03-13T00:30:32.320Z,2.63
2023-03-13T00:32:59.258Z,3.13
2023-03-13T00:35:26.322Z,3.13
2023-03-13T00:37:53.606Z,3.15
2023-03-13T00:40:20.436Z,3.38
2023-03-13T00:42:47.269Z,3.20
2023-03-13T00:45:14.190Z,3.08
2023-03-13T00:47:41.236Z,3.30
2023-03-13T00:50:09.631Z,3.55
2023-03-13T00:52:36.474Z,3.15
2023-03-13T00:55:04.257Z,2.90
2023-03-13T00:57:31.091Z,2.97
2023-03-13T00:59:58.076Z,3.05
2023-03-13T01:02:25.278Z,3.05
2023-03-13T01:04:54.057Z,3.67
2023-03-13T01:07:23.244Z,3.30
2023-03-13T01:09:50.065Z,3.00
2023-03-13T01:12:16.916Z,2.92
2023-03-13T01:14:43.762Z,3.10
2023-03-13T01:17:10.591Z,3.90
2023-03-13T01:19:37.435Z,2.83
2023-03-13T01:22:04.312Z,2.70
2023-03-13T01:24:31.303Z,3.08
2023-03-13T01:26:58.679Z,2.95
2023-03-13T01:29:25.512Z,2.80
2023-03-13T01:31:52.385Z,2.95
2023-03-13T01:34:19.382Z,3.03
2023-03-13T01:36:50.586Z,3.00
2023-03-13T01:39:17.476Z,2.60
2023-03-13T01:41:44.454Z,3.05
2023-03-13T01:44:27.463Z,2.67
2023-03-13T01:46:56.212Z,2.90
2023-03-13T01:49:34.455Z,2.60
2023-03-13T01:52:31.223Z,2.85
2023-03-13T01:55:21.035Z,2.97
2023-03-13T01:57:54.757Z,2.88
2023-03-13T02:00:26.993Z,2.70
2023-03-13T02:02:58.318Z,2.80
2023-03-13T02:05:27.563Z,2.42
2023-03-13T02:08:12.540Z,2.60
2023-03-13T02:10:56.676Z,2.67
2023-03-13T02:13:23.848Z,2.60
2023-03-13T02:15:51.158Z,2.47
2023-03-13T02:18:18.281Z,3.10
2023-03-13T02:20:48.430Z,2.63
2023-03-13T02:23:31.646Z,2.70
2023-03-13T02:25:58.966Z,2.72
2023-03-13T02:28:35.700Z,2.50
2023-03-13T02:31:06.863Z,2.63
2023-03-13T02:33:39.067Z,2.53
2023-03-13T02:36:07.793Z,2.50
2023-03-13T02:38:57.875Z,2.95
2023-03-13T02:41:27.048Z,2.60
2023-03-13T02:43:55.913Z,2.75
2023-03-13T02:46:23.053Z,2.55
2023-03-13T02:48:56.242Z,2.53
2023-03-13T02:51:39.846Z,3.00
2023-03-13T02:54:21.040Z,3.00
2023-03-13T02:56:51.588Z,2.28
2023-03-13T02:59:18.523Z,2.83
2023-03-13T03:01:47.028Z,3.22
2023-03-13T03:04:13.904Z,3.10
2023-03-13T03:06:40.765Z,3.47
2023-03-13T03:09:08.522Z,3.00
2023-03-13T03:11:38.654Z,2.90
2023-03-13T03:14:10.867Z,2.45
2023-03-13T03:16:42.763Z,2.88
2023-03-13T03:19:11.095Z,2.80
2023-03-13T03:21:38.333Z,2.85
2023-03-13T03:24:06.094Z,3.25
2023-03-13T03:26:33.146Z,2.65
2023-03-13T03:29:00.342Z,3.05
2023-03-13T03:31:27.671Z,2.88
2023-03-13T03:33:57.282Z,2.70
2023-03-13T03:36:24.474Z,3.95
2023-03-13T03:38:51.590Z,2.90
2023-03-13T03:41:23.011Z,3.17
2023-03-13T03:43:50.522Z,3.08
2023-03-13T03:46:21.285Z,3.00
2023-03-13T03:48:48.305Z,2.55
2023-03-13T03:51:15.257Z,2.90
2023-03-13T03:53:44.566Z,2.80
2023-03-13T03:56:11.399Z,2.85
2023-03-13T03:58:44.299Z,3.03
2023-03-13T04:01:16.698Z,3.35
2023-03-13T04:03:43.971Z,4.15
2023-03-13T04:06:12.580Z,4.45
2023-03-13T04:08:39.853Z,4.32
2023-03-13T04:11:09.833Z,5.07
2023-03-13T04:13:39.908Z,4.72
2023-03-13T04:16:10.743Z,4.35
2023-03-13T04:18:38.634Z,5.32
2023-03-13T04:21:06.744Z,4.63
2023-03-13T04:23:42.211Z,4.38
2023-03-13T04:26:09.157Z,4.43
2023-03-13T04:28:37.524Z,12.88
2023-03-13T04:31:07.083Z,11.70
2023-03-13T04:33:39.713Z,7.28
2023-03-13T04:36:26.888Z,5.82
2023-03-13T04:39:17.210Z,5.03
2023-03-13T04:42:19.309Z,5.75
2023-03-13T04:45:12.262Z,6.20
2023-03-13T04:48:05.639Z,7.55
2023-03-13T04:50:35.203Z,15.00
2023-03-13T04:53:25.790Z,6.43
2023-03-13T04:56:02.019Z,6.10
2023-03-13T04:58:58.087Z,6.45
2023-03-13T05:01:27.693Z,7.15
2023-03-13T05:04:13.358Z,7.35
2023-03-13T05:06:57.247Z,7.78
2023-03-13T05:09:42.809Z,8.25
2023-03-13T05:12:38.802Z,7.25
2023-03-13T05:15:18.516Z,7.65
2023-03-13T05:18:20.620Z,6.45
2023-03-13T05:21:08.006Z,7.18
2023-03-13T05:23:55.176Z,8.60
2023-03-13T05:26:45.038Z,5.28
2023-03-13T05:29:30.428Z,5.22
2023-03-13T05:32:19.997Z,3.45
2023-03-13T05:34:47.013Z,4.10
2023-03-13T05:37:27.285Z,3.53
2023-03-13T05:40:13.209Z,5.20
2023-03-13T05:42:59.754Z,4.55
2023-03-13T05:45:46.771Z,5.10
2023-03-13T05:48:30.734Z,5.43
2023-03-13T05:51:13.052Z,5.18
2023-03-13T05:54:09.104Z,4.68
2023-03-13T05:56:54.623Z,4.32
2023-03-13T05:59:34.057Z,4.55
2023-03-13T06:02:17.202Z,3.95
2023-03-13T06:04:47.572Z,3.80
2023-03-13T06:07:14.844Z,3.63
2023-03-13T06:09:41.928Z,3.78
2023-03-13T06:12:11.409Z,3.47
2023-03-13T06:14:39.040Z,3.42
2023-03-13T06:17:32.110Z,3.55
2023-03-13T06:19:58.979Z,3.72
2023-03-13T06:22:25.867Z,3.40
2023-03-13T06:24:52.683Z,3.20
2023-03-13T06:27:19.607Z,3.60
2023-03-13T06:29:46.455Z,3.05
2023-03-13T06:32:13.536Z,3.35
2023-03-13T06:34:40.423Z,3.45
2023-03-13T06:37:07.360Z,3.33
2023-03-13T06:39:34.231Z,3.10
2023-03-13T06:42:01.071Z,2.78
2023-03-13T06:44:28.112Z,3.22
2023-03-13T06:46:55.042Z,3.47
2023-03-13T06:49:22.206Z,3.30
2023-03-13T06:51:49.094Z,3.10
2023-03-13T06:54:16.077Z,2.83
2023-03-13T06:56:42.974Z,3.30
2023-03-13T06:59:10.079Z,2.83
2023-03-13T07:01:36.942Z,2.88
2023-03-13T07:04:03.844Z,2.83
2023-03-13T07:06:30.829Z,2.97
2023-03-13T07:08:57.758Z,2.83
2023-03-13T07:11:26.019Z,2.85
2023-03-13T07:14:06.479Z,3.80
2023-03-13T07:16:41.948Z,3.50
2023-03-13T07:19:09.091Z,3.75
2023-03-13T07:21:35.973Z,3.55
2023-03-13T07:24:02.894Z,4.07
2023-03-13T07:26:29.941Z,4.20
2023-03-13T07:28:57.549Z,4.38
2023-03-13T07:31:24.774Z,3.15
2023-03-13T07:33:56.735Z,3.08
2023-03-13T07:36:24.125Z,3.33
2023-03-13T07:38:52.211Z,3.20
2023-03-13T07:41:20.180Z,3.22
2023-03-13T07:43:47.691Z,2.97
2023-03-13T07:46:20.319Z,2.70
2023-03-13T07:48:47.965Z,3.08
2023-03-13T07:51:17.769Z,2.45
2023-03-13T07:53:47.777Z,2.60
2023-03-13T07:56:17.859Z,2.40
2023-03-13T07:58:45.404Z,2.30
2023-03-13T08:01:26.079Z,2.30
2023-03-13T08:03:55.992Z,2.38
2023-03-13T08:06:25.461Z,2.50
2023-03-13T08:08:53.670Z,2.70
2023-03-13T08:11:25.003Z,2.75
2023-03-13T08:13:53.545Z,2.58
2023-03-13T08:16:25.630Z,3.00
2023-03-13T08:21:24.551Z,4.90
2023-03-13T08:23:56.830Z,3.63
2023-03-13T08:26:29.010Z,2.72
2023-03-13T08:28:58.280Z,3.30
2023-03-13T08:31:30.834Z,2.53
2023-03-13T08:33:58.269Z,2.33
2023-03-13T08:36:28.132Z,2.88
2023-03-13T08:38:58.327Z,2.35
2023-03-13T08:41:28.682Z,2.22
2023-03-13T08:43:57.043Z,1.60
2023-03-13T08:46:24.592Z,2.17
2023-03-13T08:48:53.313Z,2.05
2023-03-13T08:51:22.618Z,1.65
2023-03-13T08:53:49.916Z,1.60
2023-03-13T08:56:18.930Z,1.30
2023-03-13T08:58:53.180Z,1.10
2023-03-13T09:01:21.895Z,1.30
2023-03-13T09:03:49.337Z,1.50
2023-03-13T09:06:16.529Z,1.60
2023-03-13T09:08:43.732Z,1.65
2023-03-13T09:11:16.631Z,1.50
2023-03-13T09:13:45.895Z,1.40
2023-03-13T09:16:24.427Z,1.60
2023-03-13T09:18:52.853Z,0.90
2023-03-13T09:21:22.889Z,0.70
2023-03-13T09:23:50.383Z,0.82
2023-03-13T09:26:21.533Z,0.90
2023-03-13T09:28:50.132Z,0.82
2023-03-13T09:31:26.462Z,1.23
2023-03-13T09:33:54.259Z,1.00
2023-03-13T09:36:22.886Z,1.15
2023-03-13T09:38:51.793Z,1.30
2023-03-13T09:41:57.372Z,1.00
2023-03-13T09:44:31.131Z,1.05
2023-03-13T09:47:23.071Z,1.30
2023-03-13T09:49:58.884Z,1.23
2023-03-13T09:52:33.501Z,1.30
2023-03-13T09:55:03.054Z,1.10
2023-03-13T09:57:38.108Z,1.25
2023-03-13T10:00:14.944Z,1.00
2023-03-13T10:02:47.827Z,1.67
2023-03-13T10:05:20.541Z,9.00
2023-03-13T10:07:47.947Z,4.45
2023-03-13T10:10:15.639Z,2.10
2023-03-13T10:12:46.416Z,3.25
2023-03-13T10:15:21.763Z,7.90
2023-03-13T10:17:48.761Z,5.85
2023-03-13T10:20:28.122Z,1.70
2023-03-13T10:23:07.037Z,1.05
2023-03-13T10:25:36.748Z,1.52
2023-03-13T10:28:03.769Z,1.42
2023-03-13T10:30:35.898Z,1.52
2023-03-13T10:33:25.000Z,1.10
2023-03-13T10:36:08.774Z,1.88
2023-03-13T10:38:50.545Z,1.48
2023-03-13T10:41:31.778Z,1.40
2023-03-13T10:44:06.038Z,1.30
2023-03-13T10:46:35.473Z,1.40
2023-03-13T10:49:04.881Z,1.00
2023-03-13T10:51:40.154Z,1.75
2023-03-13T10:54:25.098Z,1.02
2023-03-13T10:56:56.074Z,1.20
2023-03-13T10:59:26.091Z,1.10
2023-03-13T11:01:59.149Z,1.23
2023-03-13T11:04:39.510Z,0.98
2023-03-13T11:07:21.037Z,1.20
2023-03-13T11:10:19.205Z,1.20
2023-03-13T11:12:52.281Z,1.20
2023-03-13T11:15:32.729Z,1.50
2023-03-13T11:18:03.978Z,1.70
2023-03-13T11:20:36.441Z,1.90
2023-03-13T11:23:19.454Z,1.60
2023-03-13T11:26:07.730Z,1.33
2023-03-13T11:28:58.250Z,1.75
2023-03-13T11:31:31.998Z,1.30
2023-03-13T11:34:24.165Z,1.23
2023-03-13T11:37:15.240Z,1.30
2023-03-13T11:40:00.240Z,1.58
2023-03-13T11:42:30.147Z,1.67
2023-03-13T11:45:03.583Z,1.27
2023-03-13T11:47:43.565Z,1.30
2023-03-13T11:50:24.117Z,1.50
2023-03-13T11:53:20.206Z,1.50
2023-03-13T11:56:05.865Z,1.10
2023-03-13T11:58:42.224Z,1.50
2023-03-13T12:01:18.474Z,1.48
2023-03-13T12:04:00.179Z,1.45
2023-03-13T12:06:38.065Z,1.42
2023-03-13T12:12:03.597Z,1.40
2023-03-13T12:14:41.727Z,1.75
2023-03-13T12:20:16.931Z,1.45
2023-03-13T12:22:52.967Z,1.20
2023-03-13T12:25:28.993Z,1.30
2023-03-13T12:28:14.041Z,1.73
2023-03-13T12:30:45.646Z,1.42
2023-03-13T12:33:26.636Z,1.30
2023-03-13T12:36:06.175Z,1.80
2023-03-13T12:38:46.548Z,1.42
2023-03-13T12:41:28.404Z,1.27
2023-03-13T12:44:09.797Z,1.50
2023-03-13T12:46:46.108Z,1.50
2023-03-13T12:49:31.637Z,1.40
2023-03-13T12:52:41.547Z,1.38
2023-03-13T12:55:26.669Z,1.30
2023-03-13T12:58:09.466Z,1.30
2023-03-13T13:00:40.248Z,1.23
2023-03-13T13:03:10.224Z,1.40
2023-03-13T13:05:37.400Z,1.27
2023-03-13T13:08:04.754Z,2.40
2023-03-13T13:10:31.661Z,1.38
2023-03-13T13:13:19.420Z,1.42
2023-03-13T13:15:59.833Z,1.60
2023-03-13T13:18:29.602Z,1.67
2023-03-13T13:21:02.377Z,1.33
2023-03-13T13:23:40.291Z,1.40
2023-03-13T13:29:21.679Z,1.60
2023-03-13T13:31:49.587Z,1.50
2023-03-13T13:34:36.652Z,1.50
2023-03-13T13:37:12.587Z,1.40
2023-03-13T13:39:43.627Z,1.30
2023-03-13T13:42:42.240Z,1.48
2023-03-13T13:45:15.222Z,1.38
2023-03-13T13:47:50.375Z,2.85
2023-03-13T13:50:27.086Z,1.35
2023-03-13T13:53:45.937Z,2.50
2023-03-13T13:56:27.944Z,7.20
2023-03-13T13:59:12.165Z,4.75
2023-03-13T14:01:41.753Z,2.70
2023-03-13T14:04:17.443Z,2.38
2023-03-13T14:06:49.678Z,3.65
2023-03-13T14:09:44.540Z,1.83
2023-03-13T14:12:31.642Z,1.63
2023-03-13T14:15:19.375Z,2.03
2023-03-13T14:17:50.270Z,2.20
2023-03-13T14:20:29.362Z,1.75
2023-03-13T14:23:02.460Z,1.70
2023-03-13T14:25:43.128Z,2.20
2023-03-13T14:28:22.556Z,2.58
2023-03-13T14:30:53.202Z,3.00
2023-03-13T14:33:20.407Z,2.10
2023-03-13T14:35:48.384Z,2.33
2023-03-13T14:38:21.619Z,2.03
2023-03-13T14:40:49.420Z,3.40
2023-03-13T14:43:41.521Z,5.60
2023-03-13T14:46:23.864Z,2.10
2023-03-13T14:48:55.100Z,1.70
2023-03-13T14:51:28.047Z,2.33
2023-03-13T14:53:58.898Z,1.40
2023-03-13T14:56:37.031Z,2.05
2023-03-13T14:59:18.041Z,1.60
2023-03-13T15:01:46.332Z,1.42
2023-03-13T15:04:13.470Z,2.08
2023-03-13T15:06:40.356Z,2.13
2023-03-13T15:09:19.990Z,1.83
2023-03-13T15:12:21.687Z,2.25
2023-03-13T15:14:51.045Z,1.70
2023-03-13T15:17:25.227Z,1.50
2023-03-13T15:19:59.402Z,1.50
2023-03-13T15:22:31.831Z,1.40
2023-03-13T15:25:07.896Z,1.88
2023-03-13T15:27:35.503Z,1.55
2023-03-13T15:30:02.525Z,1.70
2023-03-13T15:32:33.255Z,9.48
2023-03-13T15:35:02.069Z,2.95
2023-03-13T15:37:30.929Z,2.35
2023-03-13T15:39:58.414Z,1.63
2023-03-13T15:42:25.732Z,1.88
2023-03-13T15:44:52.786Z,1.80
2023-03-13T15:47:21.606Z,5.78
2023-03-13T15:49:48.667Z,4.82
2023-03-13T15:52:22.706Z,3.95
2023-03-13T15:54:51.312Z,2.72
2023-03-13T15:57:23.380Z,1.80
2023-03-13T15:59:51.474Z,2.00
2023-03-13T16:02:23.711Z,2.55
2023-03-13T16:04:51.680Z,3.05
2023-03-13T16:07:21.019Z,2.00
2023-03-13T16:09:47.942Z,2.47
2023-03-13T16:12:14.844Z,1.92
2023-03-13T16:14:42.105Z,4.57
2023-03-13T16:17:17.233Z,3.35
2023-03-13T16:19:45.482Z,2.40
2023-03-13T16:22:12.920Z,3.03
2023-03-13T16:24:40.459Z,7.22
2023-03-13T16:27:13.915Z,5.55
2023-03-13T16:29:40.799Z,2.08
2023-03-13T16:32:14.824Z,2.78
2023-03-13T16:34:41.745Z,3.42
2023-03-13T16:37:16.769Z,8.35
2023-03-13T16:39:45.220Z,9.93
2023-03-13T16:42:12.411Z,11.75
2023-03-13T16:44:39.968Z,9.20
2023-03-13T16:47:22.268Z,9.55
2023-03-13T16:49:49.228Z,9.20
2023-03-13T16:52:17.872Z,14.05
2023-03-13T16:54:45.633Z,9.88
2023-03-13T16:57:15.171Z,7.30
2023-03-13T16:59:42.072Z,7.55
2023-03-13T17:02:19.744Z,6.32
2023-03-13T17:04:48.023Z,7.63
2023-03-13T17:07:26.791Z,25.27
2023-03-13T17:09:53.842Z,24.00
2023-03-13T17:12:20.726Z,23.08
2023-03-13T17:14:47.855Z,25.48
2023-03-13T17:17:23.108Z,16.10
2023-03-13T17:19:50.077Z,5.82
2023-03-13T17:22:17.787Z,8.32
2023-03-13T17:24:44.986Z,16.60
2023-03-13T17:27:13.891Z,23.63
2023-03-13T17:29:41.269Z,12.38
2023-03-13T17:32:11.093Z,11.00
2023-03-13T17:34:38.039Z,8.13
2023-03-13T17:37:14.369Z,15.23
2023-03-13T17:39:41.471Z,19.65
2023-03-13T17:42:08.387Z,5.22
2023-03-13T17:44:35.378Z,1.63
2023-03-13T17:47:02.258Z,2.80
2023-03-13T17:49:31.150Z,1.65
2023-03-13T17:51:58.012Z,2.70
2023-03-13T17:54:24.831Z,2.30
2023-03-13T17:56:52.343Z,5.95
2023-03-13T17:59:19.401Z,8.98
2023-03-13T18:01:46.598Z,8.02
2023-03-13T18:04:13.844Z,19.75
2023-03-13T18:06:45.173Z,7.70
2023-03-13T18:09:17.820Z,6.68
2023-03-13T18:11:45.173Z,5.53
2023-03-13T18:14:11.987Z,7.55
2023-03-13T18:16:47.584Z,6.00
2023-03-13T18:19:21.242Z,12.38
2023-03-13T18:21:50.757Z,12.48
2023-03-13T18:24:17.961Z,6.95
2023-03-13T18:26:46.040Z,5.63
2023-03-13T18:29:26.173Z,5.13
2023-03-13T18:31:55.451Z,5.28
2023-03-13T18:34:23.717Z,5.10
2023-03-13T18:36:50.674Z,5.05
2023-03-13T18:39:19.019Z,4.25
2023-03-13T18:41:47.160Z,4.78
2023-03-13T18:44:18.985Z,4.57
2023-03-13T18:46:46.086Z,6.70
2023-03-13T18:49:21.819Z,10.77
2023-03-13T18:51:50.345Z,12.07
2023-03-13T18:54:17.592Z,14.95
2023-03-13T18:56:45.678Z,19.35
2023-03-13T18:59:14.416Z,26.30
2023-03-13T19:01:41.784Z,17.52
2023-03-13T19:04:08.890Z,12.85
2023-03-13T19:06:37.037Z,10.70
2023-03-13T19:09:37.741Z,8.80
2023-03-13T19:11:58.752Z,10.40
2023-03-13T19:14:25.778Z,16.23
2023-03-13T19:16:56.109Z,16.38
2023-03-13T19:19:24.862Z,9.35
2023-03-13T19:21:55.592Z,5.60
2023-03-13T19:24:24.146Z,5.10
2023-03-13T19:26:54.502Z,4.57
2023-03-13T19:29:23.428Z,4.70
2023-03-13T19:31:50.386Z,4.15
2023-03-13T19:34:18.767Z,3.80
2023-03-13T19:36:48.009Z,3.40
2023-03-13T19:39:21.450Z,3.08
2023-03-13T19:41:48.523Z,3.30
2023-03-13T19:44:16.709Z,3.50
2023-03-13T19:46:44.470Z,3.10
2023-03-13T19:49:16.184Z,2.90
2023-03-13T19:51:43.258Z,2.88
2023-03-13T19:54:11.232Z,2.90
2023-03-13T19:56:43.838Z,2.80
2023-03-13T19:59:15.753Z,3.80
2023-03-13T20:01:43.833Z,5.65
2023-03-13T20:04:12.226Z,7.50
2023-03-13T20:06:40.816Z,9.20
2023-03-13T20:09:14.876Z,10.60
2023-03-13T20:11:42.326Z,10.85
2023-03-13T20:14:09.497Z,10.32
2023-03-13T20:16:36.951Z,9.95
2023-03-13T20:19:03.907Z,7.18
2023-03-13T20:21:33.591Z,6.28
2023-03-13T20:24:00.765Z,4.00
2023-03-13T20:26:29.285Z,4.53
2023-03-13T20:28:57.545Z,3.90
2023-03-13T20:31:27.492Z,3.15
2023-03-13T20:33:55.482Z,4.38
2023-03-13T20:36:23.477Z,4.90
2023-03-13T20:38:50.428Z,5.32
2023-03-13T20:41:17.567Z,5.43
2023-03-13T20:43:44.378Z,6.35
2023-03-13T20:46:11.366Z,7.10
2023-03-13T20:48:39.602Z,6.85
2023-03-13T20:51:08.299Z,7.20
2023-03-13T20:53:36.864Z,5.60
2023-03-13T20:56:06.636Z,5.45
2023-03-13T20:58:34.270Z,3.65
2023-03-13T21:01:02.381Z,4.68
2023-03-13T21:03:29.453Z,5.15
2023-03-13T21:05:56.327Z,5.05
2023-03-13T21:08:23.222Z,3.60
2023-03-13T21:10:50.186Z,4.03
2023-03-13T21:13:17.019Z,3.80
2023-03-13T21:15:43.915Z,3.70
2023-03-13T21:18:11.228Z,4.03
2023-03-13T21:20:39.252Z,3.00
2023-03-13T21:23:06.190Z,2.75
2023-03-13T21:25:33.090Z,2.30
2023-03-13T21:27:59.894Z,2.80
2023-03-13T21:30:26.881Z,2.97
2023-03-13T21:32:54.556Z,3.08
2023-03-13T21:35:21.566Z,2.72
2023-03-13T21:37:48.790Z,2.25
2023-03-13T21:40:15.741Z,2.67
2023-03-13T21:42:42.635Z,4.60
2023-03-13T21:45:10.443Z,2.33
2023-03-13T21:47:37.513Z,2.20
2023-03-13T21:50:06.693Z,2.47
2023-03-13T21:52:38.394Z,2.28
2023-03-13T21:55:10.074Z,2.05
2023-03-13T21:57:36.942Z,2.40
2023-03-13T22:00:08.200Z,2.58
2023-03-13T22:02:36.511Z,2.30
2023-03-13T22:05:04.745Z,2.63
2023-03-13T22:07:31.624Z,2.53
2023-03-13T22:09:58.706Z,3.00
2023-03-13T22:12:25.845Z,2.38
2023-03-13T22:14:54.131Z,2.70
2023-03-13T22:17:22.298Z,4.30
2023-03-13T22:19:49.851Z,3.65
2023-03-13T22:22:17.325Z,2.90
2023-03-13T22:24:44.213Z,2.60
2023-03-13T22:27:11.106Z,2.22
2023-03-13T22:29:37.946Z,2.33
2023-03-13T22:32:05.207Z,2.25
2023-03-13T22:34:32.099Z,3.22
2023-03-13T22:36:59.183Z,2.70
2023-03-13T22:39:26.115Z,2.80
2023-03-13T22:41:52.989Z,3.00
2023-03-13T22:44:19.902Z,3.60
2023-03-13T22:46:46.750Z,3.50
2023-03-13T22:49:13.538Z,3.17
2023-03-13T22:51:40.386Z,3.55
2023-03-13T22:54:07.236Z,3.25
2023-03-13T22:56:34.051Z,2.97
2023-03-13T22:59:02.633Z,3.00
2023-03-13T23:01:29.791Z,2.75
2023-03-13T23:03:56.780Z,2.55
2023-03-13T23:06:25.845Z,2.30
2023-03-13T23:08:53.387Z,2.20
2023-03-13T23:11:20.924Z,2.40
2023-03-13T23:13:48.456Z,6.60
2023-03-13T23:16:15.386Z,7.18
2023-03-13T23:18:42.755Z,2.78
2023-03-13T23:21:12.829Z,2.08
2023-03-13T23:23:40.758Z,2.55
2023-03-13T23:26:11.386Z,2.00
2023-03-13T23:28:39.295Z,1.90
2023-03-13T23:31:17.298Z,1.98
2023-03-13T23:33:44.854Z,2.03
2023-03-13T23:36:17.814Z,2.10
2023-03-13T23:38:45.010Z,2.40
2023-03-13T23:41:14.207Z,2.53
2023-03-13T23:43:41.534Z,2.35
2023-03-13T23:46:27.772Z,2.65
2023-03-13T23:48:58.764Z,2.20
2023-03-13T23:51:26.187Z,2.00
2023-03-13T23:53:53.201Z,2.13
2023-03-13T23:56:21.296Z,2.10
2023-03-13T23:58:48.127Z,1.95
